sensor_id;sensor_type;location;lat;lon;timestamp;P1;durP1;ratioP1;P2;durP2;ratioP2
78610;SDS011;67932;50.474;4.436;2023-03-01T00:01:08;7.88;;;5.45;;
78610;SDS011;67932;50.474;4.436;2023-03-01T00:03:35;7.47;;;5.70;;
78610;SDS011;67932;50.474;4.436;2023-03-01T00:06:01;10.63;;;5.78;;
78610;SDS011;67932;50.474;4.436;2023-03-01T00:08:28;8.07;;;5.15;;
78610;SDS011;67932;50.474;4.436;2023-03-01T00:13:39;11.20;;;6.15;;
78610;SDS011;67932;50.474;4.436;2023-03-01T00:16:07;11.15;;;6.38;;
78610;SDS011;67932;50.474;4.436;2023-03-01T00:18:33;8.23;;;5.38;;
78610;SDS011;67932;50.474;4.436;2023-03-01T00:23:25;8.32;;;5.25;;
78610;SDS011;67932;50.474;4.436;2023-03-01T00:25:52;7.18;;;5.72;;
78610;SDS011;67932;50.474;4.436;2023-03-01T00:28:18;9.38;;;5.88;;
78610;SDS011;67932;50.474;4.436;2023-03-01T00:30:44;9.57;;;6.18;;
78610;SDS011;67932;50.474;4.436;2023-03-01T00:33:10;7.75;;;5.82;;
78610;SDS011;67932;50.474;4.436;2023-03-01T00:35:37;7.63;;;5.75;;
78610;SDS011;67932;50.474;4.436;2023-03-01T00:38:03;10.50;;;6.05;;
78610;SDS011;67932;50.474;4.436;2023-03-01T00:40:30;9.82;;;5.65;;
78610;SDS011;67932;50.474;4.436;2023-03-01T00:42:57;10.70;;;5.47;;
78610;SDS011;67932;50.474;4.436;2023-03-01T00:45:23;9.25;;;6.03;;
78610;SDS011;67932;50.474;4.436;2023-03-01T00:47:50;11.07;;;5.65;;
78610;SDS011;67932;50.474;4.436;2023-03-01T00:50:17;9.38;;;5.53;;
78610;SDS011;67932;50.474;4.436;2023-03-01T00:52:43;10.10;;;5.38;;
78610;SDS011;67932;50.474;4.436;2023-03-01T00:55:10;10.90;;;6.25;;
78610;SDS011;67932;50.474;4.436;2023-03-01T00:57:36;9.20;;;5.55;;
78610;SDS011;67932;50.474;4.436;2023-03-01T01:00:03;10.10;;;6.30;;
78610;SDS011;67932;50.474;4.436;2023-03-01T01:02:31;9.27;;;5.57;;
78610;SDS011;67932;50.474;4.436;2023-03-01T01:04:58;9.23;;;6.18;;
78610;SDS011;67932;50.474;4.436;2023-03-01T01:07:24;9.38;;;5.90;;
78610;SDS011;67932;50.474;4.436;2023-03-01T01:12:16;9.82;;;5.65;;
78610;SDS011;67932;50.474;4.436;2023-03-01T01:14:42;9.68;;;6.10;;
78610;SDS011;67932;50.474;4.436;2023-03-01T01:17:08;10.20;;;5.85;;
78610;SDS011;67932;50.474;4.436;2023-03-01T01:19:35;9.25;;;5.80;;
78610;SDS011;67932;50.474;4.436;2023-03-01T01:22:01;9.45;;;6.07;;
78610;SDS011;67932;50.474;4.436;2023-03-01T01:24:28;11.90;;;6.13;;
78610;SDS011;67932;50.474;4.436;2023-03-01T01:26:54;9.85;;;5.95;;
78610;SDS011;67932;50.474;4.436;2023-03-01T01:31:46;8.98;;;6.38;;
78610;SDS011;67932;50.474;4.436;2023-03-01T01:36:38;9.82;;;5.47;;
78610;SDS011;67932;50.474;4.436;2023-03-01T01:41:30;11.38;;;5.63;;
78610;SDS011;67932;50.474;4.436;2023-03-01T01:46:42;10.40;;;5.90;;
78610;SDS011;67932;50.474;4.436;2023-03-01T01:51:45;12.52;;;6.47;;
78610;SDS011;67932;50.474;4.436;2023-03-01T01:54:22;10.63;;;6.15;;
78610;SDS011;67932;50.474;4.436;2023-03-01T01:56:55;11.48;;;6.22;;
78610;SDS011;67932;50.474;4.436;2023-03-01T01:59:21;10.18;;;7.03;;
78610;SDS011;67932;50.474;4.436;2023-03-01T02:01:49;8.43;;;5.88;;
78610;SDS011;67932;50.474;4.436;2023-03-01T02:04:15;10.95;;;6.50;;
78610;SDS011;67932;50.474;4.436;2023-03-01T02:09:09;10.07;;;5.95;;
78610;SDS011;67932;50.474;4.436;2023-03-01T02:11:37;13.15;;;6.72;;
78610;SDS011;67932;50.474;4.436;2023-03-01T02:14:03;10.32;;;6.05;;
78610;SDS011;67932;50.474;4.436;2023-03-01T02:16:29;9.88;;;6.03;;
78610;SDS011;67932;50.474;4.436;2023-03-01T02:18:56;11.68;;;6.78;;
78610;SDS011;67932;50.474;4.436;2023-03-01T02:26:51;10.23;;;6.85;;
78610;SDS011;67932;50.474;4.436;2023-03-01T02:29:18;11.45;;;6.50;;
78610;SDS011;67932;50.474;4.436;2023-03-01T02:31:45;11.98;;;7.00;;
78610;SDS011;67932;50.474;4.436;2023-03-01T02:34:13;10.20;;;5.88;;
78610;SDS011;67932;50.474;4.436;2023-03-01T02:36:42;10.32;;;6.70;;
78610;SDS011;67932;50.474;4.436;2023-03-01T02:39:11;12.02;;;6.90;;
78610;SDS011;67932;50.474;4.436;2023-03-01T02:41:39;10.73;;;6.03;;
78610;SDS011;67932;50.474;4.436;2023-03-01T02:44:07;10.20;;;6.38;;
78610;SDS011;67932;50.474;4.436;2023-03-01T02:46:33;11.40;;;7.40;;
78610;SDS011;67932;50.474;4.436;2023-03-01T02:53:55;11.65;;;7.32;;
78610;SDS011;67932;50.474;4.436;2023-03-01T02:56:24;9.75;;;6.45;;
78610;SDS011;67932;50.474;4.436;2023-03-01T02:58:51;11.57;;;6.25;;
78610;SDS011;67932;50.474;4.436;2023-03-01T03:01:18;11.68;;;6.75;;
78610;SDS011;67932;50.474;4.436;2023-03-01T03:03:45;12.68;;;6.90;;
78610;SDS011;67932;50.474;4.436;2023-03-01T03:06:11;12.68;;;6.72;;
78610;SDS011;67932;50.474;4.436;2023-03-01T03:08:37;14.48;;;7.07;;
78610;SDS011;67932;50.474;4.436;2023-03-01T03:11:04;13.27;;;7.05;;
78610;SDS011;67932;50.474;4.436;2023-03-01T03:15:57;11.38;;;6.35;;
78610;SDS011;67932;50.474;4.436;2023-03-01T03:18:23;10.43;;;6.22;;
78610;SDS011;67932;50.474;4.436;2023-03-01T03:20:53;10.82;;;6.55;;
78610;SDS011;67932;50.474;4.436;2023-03-01T03:23:20;11.60;;;6.90;;
78610;SDS011;67932;50.474;4.436;2023-03-01T03:25:49;10.38;;;6.18;;
78610;SDS011;67932;50.474;4.436;2023-03-01T03:28:16;10.98;;;6.88;;
78610;SDS011;67932;50.474;4.436;2023-03-01T03:30:42;12.10;;;6.88;;
78610;SDS011;67932;50.474;4.436;2023-03-01T03:33:09;12.45;;;6.72;;
78610;SDS011;67932;50.474;4.436;2023-03-01T03:35:40;15.20;;;7.68;;
78610;SDS011;67932;50.474;4.436;2023-03-01T03:38:06;10.60;;;6.60;;
78610;SDS011;67932;50.474;4.436;2023-03-01T03:40:40;12.82;;;7.50;;
78610;SDS011;67932;50.474;4.436;2023-03-01T03:43:16;12.60;;;6.97;;
78610;SDS011;67932;50.474;4.436;2023-03-01T03:45:44;10.35;;;7.30;;
78610;SDS011;67932;50.474;4.436;2023-03-01T03:48:11;10.70;;;6.97;;
78610;SDS011;67932;50.474;4.436;2023-03-01T03:50:37;11.18;;;7.13;;
78610;SDS011;67932;50.474;4.436;2023-03-01T03:53:05;10.98;;;6.97;;
78610;SDS011;67932;50.474;4.436;2023-03-01T03:55:31;12.38;;;7.38;;
78610;SDS011;67932;50.474;4.436;2023-03-01T03:57:59;10.73;;;7.57;;
78610;SDS011;67932;50.474;4.436;2023-03-01T04:00:32;12.50;;;7.10;;
78610;SDS011;67932;50.474;4.436;2023-03-01T04:02:58;14.18;;;6.97;;
78610;SDS011;67932;50.474;4.436;2023-03-01T04:05:25;12.65;;;7.10;;
78610;SDS011;67932;50.474;4.436;2023-03-01T04:07:52;13.68;;;7.68;;
78610;SDS011;67932;50.474;4.436;2023-03-01T04:10:26;12.20;;;7.40;;
78610;SDS011;67932;50.474;4.436;2023-03-01T04:12:53;11.52;;;7.43;;
78610;SDS011;67932;50.474;4.436;2023-03-01T04:15:21;12.05;;;7.05;;
78610;SDS011;67932;50.474;4.436;2023-03-01T04:17:49;13.40;;;7.90;;
78610;SDS011;67932;50.474;4.436;2023-03-01T04:20:17;13.27;;;7.38;;
78610;SDS011;67932;50.474;4.436;2023-03-01T04:22:49;12.80;;;7.85;;
78610;SDS011;67932;50.474;4.436;2023-03-01T04:25:16;13.35;;;7.97;;
78610;SDS011;67932;50.474;4.436;2023-03-01T04:30:08;14.02;;;6.88;;
78610;SDS011;67932;50.474;4.436;2023-03-01T04:32:34;12.35;;;7.88;;
78610;SDS011;67932;50.474;4.436;2023-03-01T04:35:00;13.77;;;7.85;;
78610;SDS011;67932;50.474;4.436;2023-03-01T04:37:27;11.88;;;7.28;;
78610;SDS011;67932;50.474;4.436;2023-03-01T04:39:54;15.30;;;8.05;;
78610;SDS011;67932;50.474;4.436;2023-03-01T04:42:20;12.35;;;8.00;;
78610;SDS011;67932;50.474;4.436;2023-03-01T04:44:46;13.90;;;8.10;;
78610;SDS011;67932;50.474;4.436;2023-03-01T04:49:38;12.50;;;7.50;;
78610;SDS011;67932;50.474;4.436;2023-03-01T04:54:31;14.63;;;7.18;;
78610;SDS011;67932;50.474;4.436;2023-03-01T04:56:57;13.20;;;7.47;;
78610;SDS011;67932;50.474;4.436;2023-03-01T05:01:50;14.52;;;7.20;;
78610;SDS011;67932;50.474;4.436;2023-03-01T05:04:16;11.85;;;8.18;;
78610;SDS011;67932;50.474;4.436;2023-03-01T05:06:42;13.65;;;7.93;;
78610;SDS011;67932;50.474;4.436;2023-03-01T05:09:08;12.43;;;7.82;;
78610;SDS011;67932;50.474;4.436;2023-03-01T05:11:36;11.35;;;7.50;;
78610;SDS011;67932;50.474;4.436;2023-03-01T05:14:02;14.00;;;8.20;;
78610;SDS011;67932;50.474;4.436;2023-03-01T05:16:28;13.65;;;8.30;;
78610;SDS011;67932;50.474;4.436;2023-03-01T05:18:56;11.50;;;8.07;;
78610;SDS011;67932;50.474;4.436;2023-03-01T05:21:22;12.30;;;7.97;;
78610;SDS011;67932;50.474;4.436;2023-03-01T05:23:48;12.57;;;7.93;;
78610;SDS011;67932;50.474;4.436;2023-03-01T05:26:15;12.98;;;8.70;;
78610;SDS011;67932;50.474;4.436;2023-03-01T05:28:42;15.27;;;8.73;;
78610;SDS011;67932;50.474;4.436;2023-03-01T05:33:37;13.38;;;8.05;;
78610;SDS011;67932;50.474;4.436;2023-03-01T05:36:04;13.18;;;8.25;;
78610;SDS011;67932;50.474;4.436;2023-03-01T05:38:30;13.40;;;7.70;;
78610;SDS011;67932;50.474;4.436;2023-03-01T05:40:56;12.75;;;8.05;;
78610;SDS011;67932;50.474;4.436;2023-03-01T05:43:22;12.73;;;8.30;;
78610;SDS011;67932;50.474;4.436;2023-03-01T05:45:48;11.85;;;7.78;;
78610;SDS011;67932;50.474;4.436;2023-03-01T05:48:14;15.65;;;9.18;;
78610;SDS011;67932;50.474;4.436;2023-03-01T05:50:41;15.07;;;8.93;;
78610;SDS011;67932;50.474;4.436;2023-03-01T05:55:37;15.85;;;9.63;;
78610;SDS011;67932;50.474;4.436;2023-03-01T06:00:29;14.10;;;8.27;;
78610;SDS011;67932;50.474;4.436;2023-03-01T06:02:55;14.82;;;8.60;;
78610;SDS011;67932;50.474;4.436;2023-03-01T06:05:22;14.32;;;8.93;;
78610;SDS011;67932;50.474;4.436;2023-03-01T06:07:48;16.08;;;9.40;;
78610;SDS011;67932;50.474;4.436;2023-03-01T06:10:15;17.13;;;9.25;;
78610;SDS011;67932;50.474;4.436;2023-03-01T06:12:41;15.82;;;8.75;;
78610;SDS011;67932;50.474;4.436;2023-03-01T06:15:09;15.13;;;8.57;;
78610;SDS011;67932;50.474;4.436;2023-03-01T06:17:36;14.43;;;9.27;;
78610;SDS011;67932;50.474;4.436;2023-03-01T06:20:10;14.05;;;8.60;;
78610;SDS011;67932;50.474;4.436;2023-03-01T06:22:36;14.75;;;9.30;;
78610;SDS011;67932;50.474;4.436;2023-03-01T06:25:02;13.35;;;8.52;;
78610;SDS011;67932;50.474;4.436;2023-03-01T06:27:29;13.38;;;8.48;;
78610;SDS011;67932;50.474;4.436;2023-03-01T06:29:55;16.92;;;9.70;;
78610;SDS011;67932;50.474;4.436;2023-03-01T06:32:21;15.15;;;8.60;;
78610;SDS011;67932;50.474;4.436;2023-03-01T06:34:47;15.60;;;9.50;;
78610;SDS011;67932;50.474;4.436;2023-03-01T06:39:39;14.65;;;8.18;;
78610;SDS011;67932;50.474;4.436;2023-03-01T06:44:31;15.65;;;7.68;;
78610;SDS011;67932;50.474;4.436;2023-03-01T06:46:57;15.60;;;8.77;;
78610;SDS011;67932;50.474;4.436;2023-03-01T06:49:23;14.23;;;8.48;;
78610;SDS011;67932;50.474;4.436;2023-03-01T06:51:49;14.68;;;9.45;;
78610;SDS011;67932;50.474;4.436;2023-03-01T06:54:15;20.73;;;9.52;;
78610;SDS011;67932;50.474;4.436;2023-03-01T06:56:42;13.80;;;8.68;;
78610;SDS011;67932;50.474;4.436;2023-03-01T06:59:08;14.70;;;9.38;;
78610;SDS011;67932;50.474;4.436;2023-03-01T07:01:34;12.77;;;8.65;;
78610;SDS011;67932;50.474;4.436;2023-03-01T07:04:00;13.45;;;8.80;;
78610;SDS011;67932;50.474;4.436;2023-03-01T07:06:27;16.75;;;9.32;;
78610;SDS011;67932;50.474;4.436;2023-03-01T07:08:53;16.38;;;9.13;;
78610;SDS011;67932;50.474;4.436;2023-03-01T07:11:19;17.33;;;9.10;;
78610;SDS011;67932;50.474;4.436;2023-03-01T07:13:45;14.93;;;8.80;;
78610;SDS011;67932;50.474;4.436;2023-03-01T07:16:11;16.63;;;9.50;;
78610;SDS011;67932;50.474;4.436;2023-03-01T07:18:37;15.40;;;9.57;;
78610;SDS011;67932;50.474;4.436;2023-03-01T07:21:04;18.63;;;9.30;;
78610;SDS011;67932;50.474;4.436;2023-03-01T07:23:30;13.65;;;8.68;;
78610;SDS011;67932;50.474;4.436;2023-03-01T07:25:56;21.92;;;9.30;;
78610;SDS011;67932;50.474;4.436;2023-03-01T07:28:23;17.67;;;9.90;;
78610;SDS011;67932;50.474;4.436;2023-03-01T07:30:49;16.33;;;9.10;;
78610;SDS011;67932;50.474;4.436;2023-03-01T07:33:16;15.43;;;9.82;;
78610;SDS011;67932;50.474;4.436;2023-03-01T07:35:42;17.30;;;9.90;;
78610;SDS011;67932;50.474;4.436;2023-03-01T07:38:08;17.63;;;8.80;;
78610;SDS011;67932;50.474;4.436;2023-03-01T07:40:34;16.45;;;10.05;;
78610;SDS011;67932;50.474;4.436;2023-03-01T07:43:00;16.40;;;9.85;;
78610;SDS011;67932;50.474;4.436;2023-03-01T07:45:27;15.93;;;10.43;;
78610;SDS011;67932;50.474;4.436;2023-03-01T07:47:53;15.95;;;9.23;;
78610;SDS011;67932;50.474;4.436;2023-03-01T07:50:19;14.57;;;8.95;;
78610;SDS011;67932;50.474;4.436;2023-03-01T07:52:46;15.70;;;9.30;;
78610;SDS011;67932;50.474;4.436;2023-03-01T07:55:12;18.88;;;10.13;;
78610;SDS011;67932;50.474;4.436;2023-03-01T07:57:38;16.67;;;9.68;;
78610;SDS011;67932;50.474;4.436;2023-03-01T08:00:05;17.67;;;10.77;;
78610;SDS011;67932;50.474;4.436;2023-03-01T08:02:31;16.73;;;10.13;;
78610;SDS011;67932;50.474;4.436;2023-03-01T08:07:23;14.45;;;9.10;;
78610;SDS011;67932;50.474;4.436;2023-03-01T08:09:49;20.30;;;9.65;;
78610;SDS011;67932;50.474;4.436;2023-03-01T08:12:15;17.38;;;9.40;;
78610;SDS011;67932;50.474;4.436;2023-03-01T08:14:42;15.50;;;9.63;;
78610;SDS011;67932;50.474;4.436;2023-03-01T08:17:08;17.02;;;10.85;;
78610;SDS011;67932;50.474;4.436;2023-03-01T08:19:34;16.85;;;9.80;;
78610;SDS011;67932;50.474;4.436;2023-03-01T08:24:26;14.68;;;9.43;;
78610;SDS011;67932;50.474;4.436;2023-03-01T08:29:18;13.93;;;9.50;;
78610;SDS011;67932;50.474;4.436;2023-03-01T08:31:44;15.30;;;10.13;;
78610;SDS011;67932;50.474;4.436;2023-03-01T08:36:40;15.82;;;9.27;;
78610;SDS011;67932;50.474;4.436;2023-03-01T08:39:06;16.45;;;10.45;;
78610;SDS011;67932;50.474;4.436;2023-03-01T08:41:32;17.80;;;10.05;;
78610;SDS011;67932;50.474;4.436;2023-03-01T08:46:25;15.77;;;10.60;;
78610;SDS011;67932;50.474;4.436;2023-03-01T08:48:51;19.15;;;9.98;;
78610;SDS011;67932;50.474;4.436;2023-03-01T08:53:43;15.90;;;8.93;;
78610;SDS011;67932;50.474;4.436;2023-03-01T08:56:10;14.05;;;10.07;;
78610;SDS011;67932;50.474;4.436;2023-03-01T08:58:36;18.83;;;10.25;;
78610;SDS011;67932;50.474;4.436;2023-03-01T09:01:10;17.73;;;11.35;;
78610;SDS011;67932;50.474;4.436;2023-03-01T09:03:36;15.18;;;9.77;;
78610;SDS011;67932;50.474;4.436;2023-03-01T09:08:28;14.45;;;9.02;;
78610;SDS011;67932;50.474;4.436;2023-03-01T09:13:20;13.02;;;9.05;;
78610;SDS011;67932;50.474;4.436;2023-03-01T09:15:49;16.70;;;10.25;;
78610;SDS011;67932;50.474;4.436;2023-03-01T09:18:16;17.08;;;9.82;;
78610;SDS011;67932;50.474;4.436;2023-03-01T09:20:42;14.52;;;9.05;;
78610;SDS011;67932;50.474;4.436;2023-03-01T09:25:34;18.48;;;8.95;;
78610;SDS011;67932;50.474;4.436;2023-03-01T09:30:26;17.70;;;8.93;;
78610;SDS011;67932;50.474;4.436;2023-03-01T09:32:53;19.70;;;9.50;;
78610;SDS011;67932;50.474;4.436;2023-03-01T09:37:45;19.65;;;8.77;;
78610;SDS011;67932;50.474;4.436;2023-03-01T09:40:12;15.82;;;8.93;;
78610;SDS011;67932;50.474;4.436;2023-03-01T09:42:45;16.17;;;9.27;;
78610;SDS011;67932;50.474;4.436;2023-03-01T09:45:16;13.30;;;8.35;;
78610;SDS011;67932;50.474;4.436;2023-03-01T09:47:45;16.83;;;9.23;;
78610;SDS011;67932;50.474;4.436;2023-03-01T09:50:17;15.70;;;8.50;;
78610;SDS011;67932;50.474;4.436;2023-03-01T09:52:58;18.17;;;10.07;;
78610;SDS011;67932;50.474;4.436;2023-03-01T09:55:29;14.50;;;8.90;;
78610;SDS011;67932;50.474;4.436;2023-03-01T09:57:57;15.00;;;8.98;;
78610;SDS011;67932;50.474;4.436;2023-03-01T10:00:39;15.15;;;9.10;;
78610;SDS011;67932;50.474;4.436;2023-03-01T10:03:17;15.77;;;8.82;;
78610;SDS011;67932;50.474;4.436;2023-03-01T10:08:26;13.25;;;8.52;;
78610;SDS011;67932;50.474;4.436;2023-03-01T10:10:54;16.58;;;9.10;;
78610;SDS011;67932;50.474;4.436;2023-03-01T10:13:36;19.90;;;9.48;;
78610;SDS011;67932;50.474;4.436;2023-03-01T10:19:10;15.18;;;9.02;;
78610;SDS011;67932;50.474;4.436;2023-03-01T10:21:39;12.65;;;8.05;;
78610;SDS011;67932;50.474;4.436;2023-03-01T10:24:10;14.50;;;8.55;;
78610;SDS011;67932;50.474;4.436;2023-03-01T10:29:10;15.85;;;8.55;;
78610;SDS011;67932;50.474;4.436;2023-03-01T10:34:09;15.40;;;9.25;;
78610;SDS011;67932;50.474;4.436;2023-03-01T10:36:35;14.48;;;8.35;;
78610;SDS011;67932;50.474;4.436;2023-03-01T10:39:06;16.55;;;9.35;;
78610;SDS011;67932;50.474;4.436;2023-03-01T10:41:37;15.85;;;9.18;;
78610;SDS011;67932;50.474;4.436;2023-03-01T10:44:10;15.77;;;9.02;;
78610;SDS011;67932;50.474;4.436;2023-03-01T10:47:00;17.52;;;9.65;;
78610;SDS011;67932;50.474;4.436;2023-03-01T10:49:26;15.32;;;9.27;;
78610;SDS011;67932;50.474;4.436;2023-03-01T10:51:53;17.35;;;9.55;;
78610;SDS011;67932;50.474;4.436;2023-03-01T10:54:29;15.20;;;8.77;;
78610;SDS011;67932;50.474;4.436;2023-03-01T10:56:57;15.75;;;8.93;;
78610;SDS011;67932;50.474;4.436;2023-03-01T10:59:30;15.95;;;9.27;;
78610;SDS011;67932;50.474;4.436;2023-03-01T11:04:35;15.00;;;8.65;;
78610;SDS011;67932;50.474;4.436;2023-03-01T11:07:01;15.60;;;8.98;;
78610;SDS011;67932;50.474;4.436;2023-03-01T11:09:30;18.95;;;10.10;;
78610;SDS011;67932;50.474;4.436;2023-03-01T11:12:02;15.15;;;8.75;;
78610;SDS011;67932;50.474;4.436;2023-03-01T11:14:32;15.25;;;8.95;;
78610;SDS011;67932;50.474;4.436;2023-03-01T11:17:01;15.35;;;9.25;;
78610;SDS011;67932;50.474;4.436;2023-03-01T11:19:27;17.08;;;9.88;;
78610;SDS011;67932;50.474;4.436;2023-03-01T11:24:20;15.48;;;9.55;;
78610;SDS011;67932;50.474;4.436;2023-03-01T11:26:50;14.18;;;9.10;;
78610;SDS011;67932;50.474;4.436;2023-03-01T11:31:56;17.95;;;9.75;;
78610;SDS011;67932;50.474;4.436;2023-03-01T11:37:21;17.33;;;9.38;;
78610;SDS011;67932;50.474;4.436;2023-03-01T11:39:54;17.70;;;9.23;;
78610;SDS011;67932;50.474;4.436;2023-03-01T11:44:52;17.02;;;8.88;;
78610;SDS011;67932;50.474;4.436;2023-03-01T11:55:28;14.50;;;8.95;;
78610;SDS011;67932;50.474;4.436;2023-03-01T12:03:23;18.08;;;9.55;;
78610;SDS011;67932;50.474;4.436;2023-03-01T12:19:26;19.10;;;8.70;;
78610;SDS011;67932;50.474;4.436;2023-03-01T12:44:47;15.73;;;9.55;;
78610;SDS011;67932;50.474;4.436;2023-03-01T12:47:30;13.77;;;8.88;;
78610;SDS011;67932;50.474;4.436;2023-03-01T12:50:04;14.52;;;8.32;;
78610;SDS011;67932;50.474;4.436;2023-03-01T12:52:47;14.63;;;8.70;;
78610;SDS011;67932;50.474;4.436;2023-03-01T12:55:58;15.20;;;8.38;;
78610;SDS011;67932;50.474;4.436;2023-03-01T12:58:22;17.25;;;9.63;;
78610;SDS011;67932;50.474;4.436;2023-03-01T13:06:10;13.40;;;8.10;;
78610;SDS011;67932;50.474;4.436;2023-03-01T13:08:41;12.98;;;8.35;;
78610;SDS011;67932;50.474;4.436;2023-03-01T13:11:19;12.73;;;7.63;;
78610;SDS011;67932;50.474;4.436;2023-03-01T13:13:46;16.08;;;8.60;;
78610;SDS011;67932;50.474;4.436;2023-03-01T13:16:21;14.18;;;8.05;;
78610;SDS011;67932;50.474;4.436;2023-03-01T13:18:48;15.27;;;8.75;;
78610;SDS011;67932;50.474;4.436;2023-03-01T13:21:14;13.95;;;8.15;;
78610;SDS011;67932;50.474;4.436;2023-03-01T13:23:54;11.85;;;7.90;;
78610;SDS011;67932;50.474;4.436;2023-03-01T13:26:20;13.00;;;8.38;;
78610;SDS011;67932;50.474;4.436;2023-03-01T13:28:47;14.95;;;8.23;;
78610;SDS011;67932;50.474;4.436;2023-03-01T13:39:01;14.52;;;8.20;;
78610;SDS011;67932;50.474;4.436;2023-03-01T13:44:13;12.38;;;7.78;;
78610;SDS011;67932;50.474;4.436;2023-03-01T13:46:46;11.57;;;7.90;;
78610;SDS011;67932;50.474;4.436;2023-03-01T13:49:14;10.73;;;7.72;;
78610;SDS011;67932;50.474;4.436;2023-03-01T13:51:42;12.00;;;7.63;;
78610;SDS011;67932;50.474;4.436;2023-03-01T13:54:12;11.05;;;8.02;;
78610;SDS011;67932;50.474;4.436;2023-03-01T13:56:39;14.73;;;8.68;;
78610;SDS011;67932;50.474;4.436;2023-03-01T13:59:16;11.55;;;7.35;;
78610;SDS011;67932;50.474;4.436;2023-03-01T14:01:42;11.45;;;7.82;;
78610;SDS011;67932;50.474;4.436;2023-03-01T14:04:19;13.20;;;7.80;;
78610;SDS011;67932;50.474;4.436;2023-03-01T14:06:45;13.10;;;7.68;;
78610;SDS011;67932;50.474;4.436;2023-03-01T14:09:16;11.90;;;8.23;;
78610;SDS011;67932;50.474;4.436;2023-03-01T14:19:39;14.95;;;8.20;;
78610;SDS011;67932;50.474;4.436;2023-03-01T14:22:19;12.40;;;7.60;;
78610;SDS011;67932;50.474;4.436;2023-03-01T14:24:50;10.95;;;7.45;;
78610;SDS011;67932;50.474;4.436;2023-03-01T14:27:17;11.90;;;8.65;;
78610;SDS011;67932;50.474;4.436;2023-03-01T14:29:43;13.40;;;8.55;;
78610;SDS011;67932;50.474;4.436;2023-03-01T14:32:20;13.05;;;9.00;;
78610;SDS011;67932;50.474;4.436;2023-03-01T14:34:48;13.38;;;8.65;;
78610;SDS011;67932;50.474;4.436;2023-03-01T14:37:18;13.77;;;8.88;;
78610;SDS011;67932;50.474;4.436;2023-03-01T14:39:44;16.63;;;10.20;;
78610;SDS011;67932;50.474;4.436;2023-03-01T14:42:11;15.00;;;10.35;;
78610;SDS011;67932;50.474;4.436;2023-03-01T14:44:37;15.18;;;11.38;;
78610;SDS011;67932;50.474;4.436;2023-03-01T14:47:04;16.52;;;11.65;;
78610;SDS011;67932;50.474;4.436;2023-03-01T14:49:30;15.48;;;11.27;;
78610;SDS011;67932;50.474;4.436;2023-03-01T14:51:59;14.60;;;9.98;;
78610;SDS011;67932;50.474;4.436;2023-03-01T14:56:52;12.27;;;9.20;;
78610;SDS011;67932;50.474;4.436;2023-03-01T14:59:22;14.55;;;9.85;;
78610;SDS011;67932;50.474;4.436;2023-03-01T15:01:49;12.27;;;8.50;;
78610;SDS011;67932;50.474;4.436;2023-03-01T15:04:15;15.25;;;8.60;;
78610;SDS011;67932;50.474;4.436;2023-03-01T15:06:42;12.88;;;8.38;;
78610;SDS011;67932;50.474;4.436;2023-03-01T15:09:13;13.57;;;8.88;;
78610;SDS011;67932;50.474;4.436;2023-03-01T15:16:54;13.85;;;7.50;;
78610;SDS011;67932;50.474;4.436;2023-03-01T15:19:21;12.75;;;6.88;;
78610;SDS011;67932;50.474;4.436;2023-03-01T15:21:49;12.27;;;7.28;;
78610;SDS011;67932;50.474;4.436;2023-03-01T15:24:16;11.27;;;7.47;;
78610;SDS011;67932;50.474;4.436;2023-03-01T15:26:51;12.48;;;7.40;;
78610;SDS011;67932;50.474;4.436;2023-03-01T15:29:21;9.98;;;7.03;;
78610;SDS011;67932;50.474;4.436;2023-03-01T15:31:58;10.00;;;7.25;;
78610;SDS011;67932;50.474;4.436;2023-03-01T15:34:29;10.77;;;6.88;;
78610;SDS011;67932;50.474;4.436;2023-03-01T15:36:56;13.60;;;7.43;;
78610;SDS011;67932;50.474;4.436;2023-03-01T15:41:56;11.93;;;6.85;;
78610;SDS011;67932;50.474;4.436;2023-03-01T15:44:27;10.18;;;7.15;;
78610;SDS011;67932;50.474;4.436;2023-03-01T15:46:54;11.38;;;7.15;;
78610;SDS011;67932;50.474;4.436;2023-03-01T15:51:46;9.35;;;6.60;;
78610;SDS011;67932;50.474;4.436;2023-03-01T15:54:19;11.40;;;6.95;;
78610;SDS011;67932;50.474;4.436;2023-03-01T15:56:46;10.90;;;6.97;;
78610;SDS011;67932;50.474;4.436;2023-03-01T15:59:13;16.33;;;7.68;;
78610;SDS011;67932;50.474;4.436;2023-03-01T16:01:43;10.93;;;6.80;;
78610;SDS011;67932;50.474;4.436;2023-03-01T16:04:12;9.48;;;6.88;;
78610;SDS011;67932;50.474;4.436;2023-03-01T16:06:45;9.75;;;7.20;;
78610;SDS011;67932;50.474;4.436;2023-03-01T16:09:23;11.80;;;7.32;;
78610;SDS011;67932;50.474;4.436;2023-03-01T16:11:50;11.27;;;7.25;;
78610;SDS011;67932;50.474;4.436;2023-03-01T16:14:16;10.45;;;6.80;;
78610;SDS011;67932;50.474;4.436;2023-03-01T16:16:43;12.38;;;6.60;;
78610;SDS011;67932;50.474;4.436;2023-03-01T16:19:10;12.05;;;7.60;;
78610;SDS011;67932;50.474;4.436;2023-03-01T16:21:36;12.02;;;7.60;;
78610;SDS011;67932;50.474;4.436;2023-03-01T16:24:02;9.05;;;6.65;;
78610;SDS011;67932;50.474;4.436;2023-03-01T16:26:28;13.60;;;7.60;;
78610;SDS011;67932;50.474;4.436;2023-03-01T16:28:55;11.65;;;6.93;;
78610;SDS011;67932;50.474;4.436;2023-03-01T16:31:21;13.85;;;8.02;;
78610;SDS011;67932;50.474;4.436;2023-03-01T16:33:48;12.90;;;6.70;;
78610;SDS011;67932;50.474;4.436;2023-03-01T16:36:18;13.75;;;7.05;;
78610;SDS011;67932;50.474;4.436;2023-03-01T16:38:44;11.65;;;6.93;;
78610;SDS011;67932;50.474;4.436;2023-03-01T16:41:12;13.48;;;7.15;;
78610;SDS011;67932;50.474;4.436;2023-03-01T16:43:38;13.18;;;7.35;;
78610;SDS011;67932;50.474;4.436;2023-03-01T16:46:16;11.85;;;7.53;;
78610;SDS011;67932;50.474;4.436;2023-03-01T16:48:42;14.52;;;7.47;;
78610;SDS011;67932;50.474;4.436;2023-03-01T16:51:08;11.20;;;6.93;;
78610;SDS011;67932;50.474;4.436;2023-03-01T16:53:35;14.25;;;7.15;;
78610;SDS011;67932;50.474;4.436;2023-03-01T16:56:03;14.23;;;6.93;;
78610;SDS011;67932;50.474;4.436;2023-03-01T16:58:30;11.82;;;6.90;;
78610;SDS011;67932;50.474;4.436;2023-03-01T17:00:56;12.75;;;6.95;;
78610;SDS011;67932;50.474;4.436;2023-03-01T17:03:23;10.63;;;7.07;;
78610;SDS011;67932;50.474;4.436;2023-03-01T17:05:49;13.55;;;7.18;;
78610;SDS011;67932;50.474;4.436;2023-03-01T17:08:16;14.00;;;7.10;;
78610;SDS011;67932;50.474;4.436;2023-03-01T17:10:42;12.93;;;6.72;;
78610;SDS011;67932;50.474;4.436;2023-03-01T17:13:08;10.10;;;6.13;;
78610;SDS011;67932;50.474;4.436;2023-03-01T17:15:37;12.52;;;6.53;;
78610;SDS011;67932;50.474;4.436;2023-03-01T17:18:04;11.73;;;6.65;;
78610;SDS011;67932;50.474;4.436;2023-03-01T17:20:30;11.45;;;7.32;;
78610;SDS011;67932;50.474;4.436;2023-03-01T17:22:56;14.13;;;7.07;;
78610;SDS011;67932;50.474;4.436;2023-03-01T17:25:22;12.48;;;6.72;;
78610;SDS011;67932;50.474;4.436;2023-03-01T17:27:49;14.48;;;7.45;;
78610;SDS011;67932;50.474;4.436;2023-03-01T17:30:15;11.75;;;6.97;;
78610;SDS011;67932;50.474;4.436;2023-03-01T17:32:41;12.15;;;7.15;;
78610;SDS011;67932;50.474;4.436;2023-03-01T17:35:07;13.43;;;7.68;;
78610;SDS011;67932;50.474;4.436;2023-03-01T17:37:35;13.95;;;7.63;;
78610;SDS011;67932;50.474;4.436;2023-03-01T17:40:04;15.38;;;7.20;;
78610;SDS011;67932;50.474;4.436;2023-03-01T17:42:30;15.02;;;7.20;;
78610;SDS011;67932;50.474;4.436;2023-03-01T17:44:56;14.70;;;7.38;;
78610;SDS011;67932;50.474;4.436;2023-03-01T17:47:22;14.68;;;6.97;;
78610;SDS011;67932;50.474;4.436;2023-03-01T17:49:48;13.98;;;7.40;;
78610;SDS011;67932;50.474;4.436;2023-03-01T17:52:14;11.90;;;7.47;;
78610;SDS011;67932;50.474;4.436;2023-03-01T17:54:41;13.88;;;7.95;;